Time;durP1;ratioP1;P1;durP2;ratioP2;P2;SDS_P1;SDS_P2;PMS_P1;PMS_P2;Temp;Humidity;BMP_temperature;BMP_pressure;BME280_temperature;BME280_humidity;BME280_pressure;Samples;Min_cycle;Max_cycle;Signal;HPM_P1;HPM_P2
2022/11/02 00:00:46;;;;;;;6.50;2.50;;;11.20;99.90;;;;;;5051430;28;20224;-74
2022/11/02 00:03:14;;;;;;;4.30;2.10;;;10.90;99.90;;;;;;5051193;28;20299;-75
2022/11/02 00:05:42;;;;;;;4.55;2.60;;;10.70;99.90;;;;;;5034212;28;20661;-75
2022/11/02 00:08:10;;;;;;;4.25;2.75;;;10.60;99.90;;;;;;5051146;28;20232;-74
2022/11/02 00:10:37;;;;;;;5.57;3.25;;;10.60;99.90;;;;;;5052050;28;20193;-75
2022/11/02 00:13:04;;;;;;;3.92;2.90;;;10.50;99.90;;;;;;5051336;28;20597;-74
2022/11/02 00:15:36;;;;;;;5.38;3.17;;;10.40;99.90;;;;;;5050617;28;20286;-75
2022/11/02 00:18:05;;;;;;;5.50;3.75;;;10.40;99.90;;;;;;5051552;28;20211;-74
2022/11/02 00:20:33;;;;;;;3.22;2.92;;;10.40;99.90;;;;;;5034043;28;20266;-74
2022/11/02 00:23:03;;;;;;;4.63;3.13;;;10.30;99.90;;;;;;5052443;28;20228;-74
2022/11/02 00:25:33;;;;;;;4.22;3.42;;;10.20;99.90;;;;;;5050035;28;20197;-74
2022/11/02 00:28:00;;;;;;;4.60;3.15;;;10.20;99.90;;;;;;5032853;28;20201;-74
2022/11/02 00:30:27;;;;;;;7.47;3.20;;;10.10;99.90;;;;;;5050791;28;20226;-73
2022/11/02 00:32:55;;;;;;;5.18;3.20;;;10.10;99.90;;;;;;5052012;28;20216;-74
2022/11/02 00:35:23;;;;;;;4.47;2.75;;;10.00;99.90;;;;;;5050012;28;20315;-74
2022/11/02 00:37:50;;;;;;;7.18;3.50;;;10.00;99.90;;;;;;5033310;28;20197;-75
2022/11/02 00:40:19;;;;;;;8.20;2.80;;;10.00;99.90;;;;;;5050840;28;20246;-74
2022/11/02 00:42:46;;;;;;;4.93;3.35;;;10.00;99.90;;;;;;5051343;28;20193;-74
2022/11/02 00:45:13;;;;;;;5.05;3.65;;;9.90;99.90;;;;;;5032863;28;20763;-74
2022/11/02 00:47:40;;;;;;;7.78;3.67;;;9.90;99.90;;;;;;5054316;28;20672;-74
2022/11/02 00:50:09;;;;;;;4.90;3.30;;;9.80;99.90;;;;;;5020224;28;20201;-74
2022/11/02 00:52:38;;;;;;;7.50;3.92;;;9.80;99.90;;;;;;5036790;28;20298;-74
2022/11/02 00:55:07;;;;;;;5.35;3.90;;;9.80;99.90;;;;;;5053824;28;20228;-73
2022/11/02 00:57:37;;;;;;;7.78;4.22;;;9.80;99.90;;;;;;5035721;28;20222;-74
2022/11/02 01:00:05;;;;;;;4.25;3.72;;;9.70;99.90;;;;;;5036860;28;20230;-74
2022/11/02 01:02:32;;;;;;;7.65;3.63;;;9.70;99.90;;;;;;5054914;28;20676;-74
2022/11/02 01:04:59;;;;;;;5.97;4.30;;;9.60;99.90;;;;;;5053932;28;20288;-74
2022/11/02 01:07:28;;;;;;;4.90;3.92;;;9.30;99.90;;;;;;5037358;28;20204;-74
2022/11/02 01:09:55;;;;;;;5.78;3.72;;;9.50;99.90;;;;;;5053791;28;20561;-73
2022/11/02 01:12:22;;;;;;;6.60;4.40;;;9.40;99.90;;;;;;5055023;28;20255;-74
2022/11/02 01:14:51;;;;;;;6.72;4.43;;;9.40;99.90;;;;;;5036168;28;20223;-73
2022/11/02 01:17:19;;;;;;;5.93;4.70;;;9.30;99.90;;;;;;5054704;28;20211;-74
2022/11/02 01:19:46;;;;;;;7.38;4.82;;;9.30;99.90;;;;;;5035693;28;20253;-74
2022/11/02 01:22:14;;;;;;;5.10;4.40;;;9.30;99.90;;;;;;5036871;28;20616;-74
2022/11/02 01:24:41;;;;;;;8.50;4.47;;;9.30;99.90;;;;;;5053882;28;20199;-74
2022/11/02 01:27:08;;;;;;;6.38;4.88;;;9.30;99.90;;;;;;5053507;28;20227;-74
2022/11/02 01:29:35;;;;;;;5.80;4.35;;;9.30;99.90;;;;;;5042277;28;20291;-73
2022/11/02 01:32:05;;;;;;;7.75;4.50;;;9.30;99.90;;;;;;5047786;28;20236;-74
2022/11/02 01:34:32;;;;;;;8.85;4.55;;;9.30;99.90;;;;;;5038268;28;20219;-74
2022/11/02 01:36:59;;;;;;;6.38;3.97;;;9.30;99.90;;;;;;5053936;28;20211;-74
2022/11/02 01:39:26;;;;;;;9.85;4.55;;;9.30;99.90;;;;;;5053589;28;20197;-73
2022/11/02 01:41:54;;;;;;;7.75;4.07;;;9.30;99.90;;;;;;5036491;28;20203;-74
2022/11/02 01:44:28;;;;;;;6.03;4.38;;;9.30;99.90;;;;;;5053797;28;20350;-74
2022/11/02 01:47:01;;;;;;;7.07;3.80;;;9.30;99.90;;;;;;5054514;28;20212;-74
2022/11/02 01:49:33;;;;;;;4.00;3.58;;;9.30;99.90;;;;;;5035432;28;20259;-73
2022/11/02 01:52:05;;;;;;;8.68;4.70;;;9.30;99.90;;;;;;5053919;28;20207;-74
2022/11/02 01:54:38;;;;;;;5.57;3.92;;;9.30;99.90;;;;;;5035271;28;20227;-74
2022/11/02 01:57:08;;;;;;;4.88;3.42;;;9.30;99.90;;;;;;5053790;28;20200;-74
2022/11/02 01:59:40;;;;;;;5.25;3.40;;;9.30;99.90;;;;;;5049720;28;20200;-74
2022/11/02 02:02:13;;;;;;;5.00;3.53;;;9.30;99.90;;;;;;5034373;28;20733;-73
2022/11/02 02:04:43;;;;;;;5.10;3.78;;;9.30;99.90;;;;;;5039019;28;20224;-75
2022/11/02 02:07:12;;;;;;;5.60;3.60;;;9.40;99.90;;;;;;5036327;28;20295;-74
2022/11/02 02:09:40;;;;;;;4.43;3.35;;;9.40;99.90;;;;;;5038847;28;20250;-74
2022/11/02 02:12:07;;;;;;;6.38;3.88;;;9.40;99.90;;;;;;5053674;28;20231;-74
2022/11/02 02:14:35;;;;;;;6.28;3.97;;;9.40;99.90;;;;;;5035205;28;20312;-74
2022/11/02 02:17:18;;;;;;;5.40;3.80;;;9.40;99.90;;;;;;5035193;28;20562;-74
2022/11/02 02:19:57;;;;;;;8.52;4.20;;;9.40;99.90;;;;;;5053172;28;20249;-73
2022/11/02 02:23:06;;;;;;;3.85;3.45;;;9.50;99.90;;;;;;5053635;28;20677;-74
2022/11/02 02:26:00;;;;;;;5.97;4.55;;;9.40;99.90;;;;;;5017625;28;20215;-73
2022/11/02 02:28:36;;;;;;;5.43;3.60;;;9.40;99.90;;;;;;5047741;28;20226;-73
2022/11/02 02:31:13;;;;;;;4.70;4.00;;;9.40;99.90;;;;;;5052827;28;20573;-73
2022/11/02 02:33:48;;;;;;;7.30;4.15;;;9.40;99.90;;;;;;5053390;28;20688;-74
2022/11/02 02:36:21;;;;;;;7.82;4.18;;;9.40;99.90;;;;;;5053376;28;20231;-73
2022/11/02 02:38:55;;;;;;;5.45;4.00;;;9.40;99.90;;;;;;5053232;28;20322;-73
2022/11/02 02:41:29;;;;;;;7.80;4.05;;;9.40;99.90;;;;;;5052424;28;20748;-74
2022/11/02 02:44:00;;;;;;;5.82;3.67;;;9.40;99.90;;;;;;5052014;28;20204;-73
2022/11/02 02:46:33;;;;;;;6.68;4.22;;;9.50;99.90;;;;;;5053463;28;20194;-74
2022/11/02 02:49:03;;;;;;;8.98;4.50;;;9.50;99.90;;;;;;5034780;28;20203;-74
2022/11/02 02:51:33;;;;;;;4.57;3.88;;;9.40;99.90;;;;;;5053171;28;20764;-74
2022/11/02 02:54:03;;;;;;;5.80;4.00;;;9.40;99.90;;;;;;5033686;28;20290;-74
2022/11/02 02:56:36;;;;;;;11.63;4.80;;;9.40;99.90;;;;;;5032956;28;20228;-73
2022/11/02 02:59:06;;;;;;;5.38;3.97;;;9.40;99.90;;;;;;5050582;28;20214;-73
2022/11/02 03:01:34;;;;;;;8.63;4.47;;;9.40;99.90;;;;;;5052704;28;20207;-73
2022/11/02 03:04:01;;;;;;;6.60;4.30;;;9.40;99.90;;;;;;5052050;28;20605;-74
2022/11/02 03:06:31;;;;;;;5.32;4.70;;;9.40;99.90;;;;;;5034924;28;20224;-73
2022/11/02 03:09:08;;;;;;;7.90;4.55;;;9.30;99.90;;;;;;5049320;28;20295;-74
2022/11/02 03:11:40;;;;;;;5.75;4.50;;;9.30;99.90;;;;;;5052736;28;20254;-73
2022/11/02 03:14:22;;;;;;;6.57;4.30;;;9.30;99.90;;;;;;5034683;28;20234;-74
2022/11/02 03:17:06;;;;;;;7.03;4.00;;;9.30;99.90;;;;;;5052660;28;20307;-73
2022/11/02 03:19:41;;;;;;;7.95;4.70;;;9.40;99.90;;;;;;5051967;28;20212;-74
2022/11/02 03:22:15;;;;;;;8.35;4.85;;;9.30;99.90;;;;;;5051920;28;20203;-74
2022/11/02 03:24:49;;;;;;;5.03;4.53;;;9.30;99.90;;;;;;5051176;28;20669;-74
2022/11/02 03:27:22;;;;;;;7.43;5.32;;;9.30;99.90;;;;;;5033476;28;20202;-74
2022/11/02 03:29:54;;;;;;;7.47;4.82;;;9.40;99.90;;;;;;5052648;28;20562;-73
2022/11/02 03:32:27;;;;;;;5.30;4.60;;;9.40;99.90;;;;;;5034032;28;20204;-74
2022/11/02 03:34:58;;;;;;;6.82;4.80;;;9.40;99.90;;;;;;5052616;28;20288;-74
2022/11/02 03:37:29;;;;;;;5.30;4.80;;;9.50;99.90;;;;;;5032842;28;20227;-73
2022/11/02 03:40:03;;;;;;;6.45;4.47;;;9.50;99.90;;;;;;5040665;28;20671;-74
2022/11/02 03:42:33;;;;;;;6.97;4.35;;;9.50;99.90;;;;;;5038605;28;20200;-74
2022/11/02 03:45:07;;;;;;;6.55;4.38;;;9.50;99.90;;;;;;5052171;28;20282;-73
2022/11/02 03:47:36;;;;;;;5.70;4.35;;;9.50;99.90;;;;;;5051973;28;20215;-73
2022/11/02 03:50:07;;;;;;;6.07;4.78;;;9.50;99.90;;;;;;5053506;28;20233;-73
2022/11/02 03:52:37;;;;;;;7.60;5.40;;;9.40;99.90;;;;;;5047969;28;20201;-73
2022/11/02 03:55:08;;;;;;;5.93;4.78;;;9.40;99.90;;;;;;5044203;28;20291;-73
2022/11/02 03:57:40;;;;;;;7.88;4.60;;;9.30;99.90;;;;;;5051795;28;20223;-74
2022/11/02 04:00:12;;;;;;;6.18;4.57;;;9.30;99.90;;;;;;5051014;28;20612;-73
2022/11/02 04:02:42;;;;;;;6.00;4.28;;;9.30;99.90;;;;;;5051043;28;20200;-73
2022/11/02 04:05:09;;;;;;;6.43;4.45;;;9.20;99.90;;;;;;5052945;28;20205;-74
2022/11/02 04:14:36;;;;;;;6.20;4.80;;;9.20;99.90;;;;;;5052501;28;20601;-74
2022/11/02 04:16:12;;;;;;;6.30;4.70;;;9.30;99.90;;;;;;5052198;28;20257;-73
2022/11/02 04:21:23;;;;;;;5.90;4.80;;;9.30;99.90;;;;;;5051642;28;20686;-74
2022/11/02 04:26:41;;;;;;;6.32;4.45;;;9.40;99.90;;;;;;5017632;28;20233;-74
2022/11/02 04:29:08;;;;;;;4.85;4.13;;;9.40;99.90;;;;;;5032814;28;20759;-73
2022/11/02 04:31:37;;;;;;;4.95;4.30;;;9.50;99.90;;;;;;5024984;28;20612;-73
2022/11/02 04:34:03;;;;;;;5.15;3.90;;;9.50;99.90;;;;;;5052698;28;20197;-74
2022/11/02 04:36:31;;;;;;;5.83;4.00;;;9.50;99.90;;;;;;5052461;28;20228;-73
2022/11/02 04:38:57;;;;;;;5.80;4.43;;;9.60;99.90;;;;;;5052536;28;20435;-74
2022/11/02 04:41:43;;;;;;;7.88;3.65;;;9.60;99.90;;;;;;5052388;28;20200;-73
2022/11/02 04:44:12;;;;;;;5.85;4.53;;;9.60;99.90;;;;;;5406307;22;20231;-74
2022/11/02 04:46:42;;;;;;;4.28;3.88;;;9.60;99.90;;;;;;6066130;23;20199;-74
2022/11/02 04:49:10;;;;;;;4.78;4.00;;;9.60;99.90;;;;;;6064079;23;20203;-74
2022/11/02 04:51:39;;;;;;;5.35;3.60;;;9.60;99.90;;;;;;6079468;23;20199;-74
2022/11/02 04:54:06;;;;;;;5.72;4.40;;;9.70;99.90;;;;;;6054552;23;20275;-74
2022/11/02 04:56:33;;;;;;;5.60;3.60;;;9.70;99.90;;;;;;6074874;23;20224;-74
2022/11/02 04:59:02;;;;;;;4.50;3.25;;;9.70;99.90;;;;;;6071680;23;20239;-74
2022/11/02 05:01:30;;;;;;;6.90;3.80;;;9.70;99.90;;;;;;6064285;23;20272;-74
2022/11/02 05:03:58;;;;;;;5.45;3.05;;;9.70;99.90;;;;;;6078513;23;20199;-74
2022/11/02 05:06:25;;;;;;;3.95;2.75;;;9.70;99.90;;;;;;6092775;23;20221;-74
2022/11/02 05:08:53;;;;;;;5.13;3.30;;;9.70;99.90;;;;;;6084451;23;20208;-74
2022/11/02 05:11:20;;;;;;;5.65;3.60;;;9.70;99.90;;;;;;6077185;23;20193;-74
2022/11/02 05:13:47;;;;;;;6.68;2.95;;;9.70;99.90;;;;;;6061439;23;20699;-74
2022/11/02 05:16:16;;;;;;;4.80;3.15;;;9.70;99.90;;;;;;6091694;23;20233;-74
2022/11/02 05:18:43;;;;;;;3.35;2.90;;;9.70;99.90;;;;;;6061260;23;20201;-74
2022/11/02 05:21:13;;;;;;;6.25;3.55;;;9.80;99.90;;;;;;6062639;23;20279;-74
2022/11/02 05:23:40;;;;;;;6.07;2.75;;;9.80;99.90;;;;;;6076761;23;20298;-74
2022/11/02 05:26:10;;;;;;;5.78;3.10;;;9.80;99.90;;;;;;6090892;23;20267;-74
2022/11/02 05:28:37;;;;;;;4.05;3.03;;;9.80;99.90;;;;;;6072808;23;20228;-73
2022/11/02 05:31:05;;;;;;;5.30;2.80;;;9.80;99.90;;;;;;6050744;23;20200;-75
2022/11/02 05:33:33;;;;;;;5.88;3.13;;;9.90;99.90;;;;;;6060516;23;20192;-73
2022/11/02 05:36:00;;;;;;;6.30;3.20;;;9.90;99.90;;;;;;6076510;23;20243;-74
2022/11/02 05:38:30;;;;;;;6.50;3.22;;;10.00;99.90;;;;;;6069589;23;20191;-73
2022/11/02 05:40:58;;;;;;;4.90;2.35;;;10.00;99.90;;;;;;6055321;23;20598;-74
2022/11/02 05:43:26;;;;;;;4.60;2.97;;;10.00;99.90;;;;;;6064376;23;20220;-74
2022/11/02 05:45:54;;;;;;;9.55;2.92;;;10.00;99.90;;;;;;6032010;23;20209;-77
2022/11/02 05:48:22;;;;;;;2.60;2.40;;;10.10;99.90;;;;;;6056277;23;20210;-74
2022/11/02 05:50:54;;;;;;;3.80;3.03;;;10.10;99.90;;;;;;6068705;23;20192;-74
2022/11/02 05:53:21;;;;;;;7.90;2.70;;;10.10;99.90;;;;;;6068873;23;20689;-74
2022/11/02 05:55:50;;;;;;;5.05;2.60;;;10.10;99.90;;;;;;6063270;23;20189;-73
2022/11/02 05:58:17;;;;;;;6.25;2.80;;;10.00;99.90;;;;;;6062415;23;20250;-74
2022/11/02 06:00:44;;;;;;;6.05;3.00;;;10.00;99.90;;;;;;6042985;23;20722;-74
2022/11/02 06:03:11;;;;;;;5.78;2.92;;;10.00;99.90;;;;;;6053692;23;20536;-74
2022/11/02 06:05:38;;;;;;;2.75;2.30;;;10.00;99.90;;;;;;6037972;23;20227;-74
2022/11/02 06:08:06;;;;;;;4.57;2.60;;;10.10;99.90;;;;;;6037631;23;20208;-74
2022/11/02 06:10:33;;;;;;;5.22;2.53;;;10.10;99.90;;;;;;6063124;23;20265;-74
2022/11/02 06:13:02;;;;;;;4.65;3.05;;;10.20;99.90;;;;;;6061936;23;20278;-74
2022/11/02 06:15:33;;;;;;;5.00;2.63;;;10.20;99.90;;;;;;6056479;23;20250;-75
2022/11/02 06:18:00;;;;;;;4.15;2.33;;;10.20;99.90;;;;;;6042930;23;20200;-74
2022/11/02 06:20:28;;;;;;;4.60;2.60;;;10.30;99.90;;;;;;6063166;23;20722;-74
2022/11/02 06:22:55;;;;;;;5.80;2.55;;;10.40;99.90;;;;;;6059776;23;20196;-74
2022/11/02 06:25:22;;;;;;;5.25;2.45;;;10.60;99.90;;;;;;6061783;23;20196;-79
2022/11/02 06:27:55;;;;;;;4.45;3.25;;;10.70;99.90;;;;;;6060444;23;20626;-74
2022/11/02 06:30:24;;;;;;;4.93;2.90;;;11.00;99.90;;;;;;6062854;23;20544;-74
2022/11/02 06:32:53;;;;;;;3.17;2.25;;;11.00;99.90;;;;;;6069634;23;20726;-73
2022/11/02 06:35:22;;;;;;;6.03;2.20;;;11.10;99.90;;;;;;6037572;23;20212;-81
2022/11/02 06:37:49;;;;;;;4.93;2.33;;;11.20;99.90;;;;;;6034870;23;20208;-81
2022/11/02 06:40:17;;;;;;;2.85;2.00;;;11.30;99.90;;;;;;6054810;23;20536;-74
2022/11/02 06:42:44;;;;;;;3.67;1.67;;;11.30;99.90;;;;;;6049600;23;20267;-74
2022/11/02 06:45:11;;;;;;;6.43;2.35;;;11.40;99.90;;;;;;6043990;23;20274;-75
2022/11/02 06:47:41;;;;;;;4.45;2.40;;;11.40;99.90;;;;;;6065262;23;20264;-74
2022/11/02 06:50:09;;;;;;;4.10;2.13;;;11.50;99.90;;;;;;6059939;23;20220;-75
2022/11/02 06:52:42;;;;;;;5.10;2.38;;;11.50;99.90;;;;;;6058533;23;20708;-73
2022/11/02 06:55:10;;;;;;;3.67;2.25;;;11.60;99.90;;;;;;6023770;23;20845;-75
2022/11/02 06:57:37;;;;;;;4.00;2.33;;;11.70;99.90;;;;;;6034424;23;20208;-74
2022/11/02 07:00:05;;;;;;;6.30;2.00;;;11.60;99.90;;;;;;6034348;23;20196;-75
2022/11/02 07:02:33;;;;;;;4.25;2.10;;;11.60;99.90;;;;;;6062481;23;20272;-75
2022/11/02 07:05:02;;;;;;;5.40;2.50;;;11.60;99.90;;;;;;6065896;23;20275;-74
2022/11/02 07:07:29;;;;;;;3.83;1.80;;;11.70;99.90;;;;;;6064988;23;20263;-74
2022/11/02 07:09:56;;;;;;;5.50;2.78;;;11.70;99.90;;;;;;6058385;23;20185;-73
2022/11/02 07:12:25;;;;;;;4.05;2.55;;;11.70;99.90;;;;;;6063003;23;20630;-75
2022/11/02 07:14:52;;;;;;;5.55;2.17;;;11.70;99.90;;;;;;6071162;23;20193;-74
2022/11/02 07:17:20;;;;;;;4.65;2.30;;;11.70;99.90;;;;;;6061018;23;20255;-75
2022/11/02 07:19:48;;;;;;;4.40;2.58;;;11.70;99.90;;;;;;6036152;23;20189;-74
2022/11/02 07:22:16;;;;;;;7.85;2.40;;;11.70;99.90;;;;;;6059473;23;20227;-74
2022/11/02 07:24:43;;;;;;;5.72;2.50;;;11.70;99.90;;;;;;6071464;23;20188;-74
2022/11/02 07:27:10;;;;;;;5.90;1.80;;;11.60;99.90;;;;;;6040129;23;20189;-72
2022/11/02 07:29:37;;;;;;;3.70;1.88;;;11.60;99.90;;;;;;6054790;23;20219;-72
2022/11/02 07:32:06;;;;;;;6.50;2.20;;;11.60;99.90;;;;;;6059218;23;20197;-73
2022/11/02 07:34:33;;;;;;;3.78;2.50;;;11.60;99.90;;;;;;6038744;23;20197;-73
2022/11/02 07:37:01;;;;;;;6.32;2.53;;;11.60;99.90;;;;;;6032503;23;20228;-73
2022/11/02 07:39:29;;;;;;;4.30;2.63;;;11.60;99.90;;;;;;6047311;23;20203;-73
2022/11/02 07:41:57;;;;;;;4.82;2.35;;;11.70;99.90;;;;;;6061323;23;20188;-73
2022/11/02 07:44:25;;;;;;;5.47;2.33;;;11.80;99.90;;;;;;6064911;23;20236;-72
2022/11/02 07:46:52;;;;;;;7.07;2.50;;;11.80;99.90;;;;;;6054879;23;20217;-73
2022/11/02 07:49:19;;;;;;;5.30;2.70;;;11.90;99.90;;;;;;6052897;23;20199;-73
2022/11/02 07:51:46;;;;;;;5.03;2.85;;;11.90;99.90;;;;;;6058151;23;20180;-73
2022/11/02 07:54:13;;;;;;;6.78;2.92;;;11.90;99.90;;;;;;6055640;23;20197;-73
2022/11/02 07:56:43;;;;;;;3.78;2.13;;;12.00;99.90;;;;;;6052125;23;20239;-73
2022/11/02 07:59:12;;;;;;;5.95;2.22;;;12.00;99.90;;;;;;6052171;23;20234;-73
2022/11/02 08:01:40;;;;;;;5.55;2.30;;;12.20;99.90;;;;;;6064630;23;20937;-74
2022/11/02 08:04:07;;;;;;;5.55;2.47;;;12.30;99.90;;;;;;6066565;23;20188;-73
2022/11/02 08:06:35;;;;;;;5.47;2.23;;;12.50;99.90;;;;;;6064748;23;20185;-74
2022/11/02 08:09:03;;;;;;;4.95;2.25;;;12.60;99.90;;;;;;6053358;23;20447;-73
2022/11/02 08:11:30;;;;;;;2.73;2.10;;;12.90;99.90;;;;;;6039098;23;20191;-74
2022/11/02 08:13:59;;;;;;;8.60;2.77;;;13.10;99.90;;;;;;6034971;23;20490;-73
2022/11/02 08:16:26;;;;;;;3.23;2.30;;;13.30;99.90;;;;;;6055438;23;20439;-73
2022/11/02 08:18:54;;;;;;;6.07;2.60;;;13.40;99.90;;;;;;6060613;23;20469;-73
2022/11/02 08:21:21;;;;;;;7.20;2.40;;;13.70;99.90;;;;;;6050965;23;20448;-73
2022/11/02 08:23:48;;;;;;;5.07;2.37;;;13.90;99.90;;;;;;6058036;23;20564;-73
2022/11/02 08:26:15;;;;;;;5.00;2.00;;;14.30;99.90;;;;;;6061164;23;20452;-73
2022/11/02 08:28:43;;;;;;;6.67;2.80;;;14.40;99.90;;;;;;6069193;23;20848;-73
2022/11/02 08:31:15;;;;;;;6.30;2.00;;;14.60;99.90;;;;;;6051513;23;20533;-73
2022/11/02 08:33:42;;;;;;;4.63;1.97;;;14.70;99.90;;;;;;6058781;23;20450;-73
2022/11/02 08:36:10;;;;;;;6.40;2.50;;;14.70;99.90;;;;;;6057176;23;20438;-73
2022/11/02 08:38:38;;;;;;;6.77;2.53;;;14.70;99.90;;;;;;6053953;23;20536;-73
2022/11/02 08:41:06;;;;;;;4.47;2.27;;;14.60;99.90;;;;;;6057943;23;20517;-73
2022/11/02 08:43:34;;;;;;;6.20;2.40;;;14.50;99.90;;;;;;6055385;23;20985;-73
2022/11/02 08:46:02;;;;;;;4.43;1.90;;;14.60;99.90;;;;;;6056466;23;20443;-73
2022/11/02 08:48:31;;;;;;;4.60;2.00;;;14.50;99.90;;;;;;6054984;23;20433;-73
2022/11/02 08:50:59;;;;;;;4.90;2.10;;;14.40;99.90;;;;;;6047285;23;20485;-73
2022/11/02 08:53:26;;;;;;;7.83;2.13;;;14.30;99.90;;;;;;6040538;23;20460;-76
2022/11/02 08:55:58;;;;;;;5.17;2.63;;;14.30;99.90;;;;;;6024372;23;20441;-73
2022/11/02 08:58:25;;;;;;;4.50;1.70;;;14.20;99.90;;;;;;6053607;23;20457;-72
2022/11/02 09:00:53;;;;;;;5.93;2.03;;;14.20;99.90;;;;;;6055978;23;20460;-72
2022/11/02 09:03:23;;;;;;;7.10;2.17;;;14.10;99.90;;;;;;6024330;23;20437;-73
2022/11/02 09:05:57;;;;;;;5.00;1.63;;;14.10;99.90;;;;;;6057561;23;20442;-78
2022/11/02 09:08:26;;;;;;;2.73;1.43;;;14.10;99.90;;;;;;6047639;23;20574;-74
2022/11/02 09:10:58;;;;;;;3.30;2.00;;;14.00;99.90;;;;;;6040689;23;20494;-74
2022/11/02 09:13:26;;;;;;;6.70;2.47;;;14.00;99.90;;;;;;6073575;23;20471;-74
2022/11/02 09:15:55;;;;;;;7.37;2.37;;;14.10;99.90;;;;;;6082948;23;20441;-74
2022/11/02 09:18:22;;;;;;;3.50;2.03;;;14.10;99.90;;;;;;6056299;23;20484;-74
2022/11/02 09:20:51;;;;;;;3.30;1.93;;;14.20;99.90;;;;;;6059321;23;20848;-73
2022/11/02 09:23:20;;;;;;;4.60;2.20;;;14.20;99.90;;;;;;6042617;23;20436;-74
2022/11/02 09:25:47;;;;;;;5.50;2.10;;;14.20;99.90;;;;;;6030453;23;20433;-74
2022/11/02 09:28:14;;;;;;;5.60;2.10;;;14.20;99.90;;;;;;6057409;23;20434;-73
2022/11/02 09:30:42;;;;;;;5.37;2.20;;;14.20;99.90;;;;;;6059727;23;20453;-73
2022/11/02 09:33:10;;;;;;;4.00;2.10;;;14.30;99.90;;;;;;6048939;23;20446;-74
2022/11/02 09:35:43;;;;;;;4.80;1.87;;;14.30;99.90;;;;;;6060731;23;20468;-74
2022/11/02 09:38:11;;;;;;;4.93;2.20;;;14.40;99.90;;;;;;6049222;23;20472;-73
2022/11/02 09:40:43;;;;;;;4.10;1.80;;;14.50;99.90;;;;;;6060332;23;20507;-74
2022/11/02 09:43:19;;;;;;;5.03;2.00;;;14.60;99.90;;;;;;6059421;23;20442;-74
2022/11/02 09:45:55;;;;;;;3.53;1.80;;;14.70;99.90;;;;;;6062955;23;20491;-74
2022/11/02 09:48:28;;;;;;;6.20;1.90;;;15.00;99.90;;;;;;6060771;23;20432;-74
2022/11/02 09:51:01;;;;;;;5.97;2.10;;;14.90;99.90;;;;;;6027542;23;20435;-74
2022/11/02 09:53:41;;;;;;;3.13;1.50;;;15.00;99.90;;;;;;6050619;23;20526;-72
2022/11/02 09:56:12;;;;;;;5.00;1.80;;;15.00;99.90;;;;;;6025574;23;20441;-74
2022/11/02 09:58:40;;;;;;;4.80;1.90;;;15.10;99.90;;;;;;6050270;23;20459;-74
2022/11/02 10:01:20;;;;;;;7.20;2.00;;;15.10;99.90;;;;;;6061276;23;20441;-73
2022/11/02 10:04:12;;;;;;;3.97;1.90;;;15.20;99.90;;;;;;6041959;23;20447;-76
2022/11/02 10:06:44;;;;;;;5.40;1.83;;;15.20;99.90;;;;;;6059354;23;20446;-74
2022/11/02 10:09:19;;;;;;;3.37;1.77;;;15.30;99.90;;;;;;6017706;23;20803;-73
2022/11/02 10:11:54;;;;;;;6.20;1.90;;;15.20;99.90;;;;;;6054353;23;20578;-73
2022/11/02 10:14:25;;;;;;;6.70;1.90;;;15.20;99.90;;;;;;6033124;23;20451;-73
2022/11/02 10:16:59;;;;;;;5.07;1.97;;;15.10;99.90;;;;;;6063942;23;20510;-72
2022/11/02 10:19:27;;;;;;;6.93;2.00;;;15.20;99.90;;;;;;6028200;23;21001;-73
2022/11/02 10:21:58;;;;;;;6.60;2.03;;;15.20;99.90;;;;;;6073415;23;20444;-73
2022/11/02 10:24:33;;;;;;;6.47;1.87;;;15.20;99.90;;;;;;6059404;23;20463;-76
2022/11/02 10:27:02;;;;;;;5.93;1.90;;;15.20;99.90;;;;;;6040361;23;20862;-79
2022/11/02 10:29:43;;;;;;;4.10;1.93;;;15.20;99.90;;;;;;6057474;23;20454;-74
2022/11/02 10:32:13;;;;;;;4.90;1.70;;;15.30;99.90;;;;;;6063376;23;20432;-75
2022/11/02 10:34:42;;;;;;;7.83;2.07;;;15.40;99.90;;;;;;6035264;23;20465;-74
2022/11/02 10:37:24;;;;;;;4.97;1.97;;;15.50;99.90;;;;;;6045579;23;20520;-79
2022/11/02 10:40:01;;;;;;;7.10;2.30;;;15.50;99.90;;;;;;6042665;23;20435;-78
2022/11/02 10:42:43;;;;;;;4.00;1.70;;;15.50;99.90;;;;;;6068728;23;20559;-75
2022/11/02 10:45:36;;;;;;;5.57;1.97;;;15.60;99.90;;;;;;6073774;23;20570;-74
2022/11/02 10:48:12;;;;;;;8.03;2.10;;;15.70;99.90;;;;;;6059362;23;20486;-74
2022/11/02 10:50:48;;;;;;;7.47;2.40;;;15.70;99.90;;;;;;6054355;23;20439;-74
2022/11/02 10:53:17;;;;;;;7.13;2.13;;;15.90;99.90;;;;;;6060432;23;20467;-74
2022/11/02 10:55:59;;;;;;;6.73;2.13;;;16.00;99.90;;;;;;6068782;23;20470;-75
2022/11/02 10:58:28;;;;;;;7.47;3.10;;;16.10;99.90;;;;;;6017884;23;20856;-74
2022/11/02 11:01:05;;;;;;;5.60;1.97;;;16.20;99.90;;;;;;6062289;23;20446;-74
2022/11/02 11:03:32;;;;;;;5.97;2.13;;;16.50;99.90;;;;;;6074528;23;20474;-75
2022/11/02 11:06:03;;;;;;;4.17;1.70;;;16.70;99.90;;;;;;6067063;23;20513;-74
2022/11/02 11:08:38;;;;;;;5.60;1.83;;;17.10;99.90;;;;;;6081990;23;20438;-74
2022/11/02 11:11:17;;;;;;;4.30;1.83;;;17.20;99.90;;;;;;6038152;23;20438;-74
2022/11/02 11:13:52;;;;;;;5.03;1.93;;;17.20;99.90;;;;;;6067121;23;20953;-74
2022/11/02 11:16:31;;;;;;;5.97;2.57;;;17.20;99.90;;;;;;6082611;23;20512;-75
2022/11/02 11:18:59;;;;;;;6.03;1.70;;;17.20;99.90;;;;;;6066034;23;20461;-75
2022/11/02 11:21:36;;;;;;;7.80;3.50;;;17.30;99.90;;;;;;6065799;23;20438;-74
2022/11/02 11:24:26;;;;;;;3.57;2.30;;;17.40;99.90;;;;;;6064690;23;20441;-75
2022/11/02 11:27:19;;;;;;;5.00;1.87;;;17.50;99.90;;;;;;6052759;23;20543;-74
2022/11/02 11:29:49;;;;;;;6.10;2.13;;;17.80;99.90;;;;;;6022093;23;20444;-74
2022/11/02 11:32:19;;;;;;;7.70;2.27;;;18.20;99.90;;;;;;6053425;23;20537;-75
2022/11/02 11:34:56;;;;;;;6.03;2.67;;;18.50;99.90;;;;;;6058186;23;20443;-74
2022/11/02 11:37:25;;;;;;;9.40;2.43;;;18.60;99.90;;;;;;6056477;23;20951;-74
2022/11/02 11:39:55;;;;;;;3.87;1.60;;;18.80;99.90;;;;;;6066192;23;20469;-74
2022/11/02 11:42:26;;;;;;;5.67;2.00;;;19.00;99.90;;;;;;6072610;23;20577;-74
2022/11/02 11:45:00;;;;;;;4.23;1.73;;;19.10;99.90;;;;;;6053553;23;20447;-74
2022/11/02 11:47:30;;;;;;;4.63;2.00;;;19.30;99.90;;;;;;6067081;23;21028;-74
2022/11/02 11:50:01;;;;;;;4.80;1.97;;;19.40;99.90;;;;;;6037291;23;20985;-75
2022/11/02 11:52:30;;;;;;;3.90;1.87;;;19.70;99.90;;;;;;6041840;23;20446;-74
2022/11/02 11:54:59;;;;;;;6.07;2.23;;;20.10;99.90;;;;;;6057812;23;20554;-75
2022/11/02 11:57:30;;;;;;;3.83;1.80;;;20.60;99.90;;;;;;6055581;23;20431;-74
2022/11/02 12:00:03;;;;;;;4.70;2.23;;;20.90;99.90;;;;;;6058605;23;20496;-73
2022/11/02 12:02:32;;;;;;;5.13;2.13;;;21.20;99.90;;;;;;6056550;23;20432;-74
2022/11/02 12:05:12;;;;;;;4.90;2.10;;;21.40;99.90;;;;;;6061293;23;20451;-74
2022/11/02 12:08:00;;;;;;;4.43;1.73;;;21.40;99.90;;;;;;6042327;23;23371;-74
2022/11/02 12:10:55;;;;;;;4.77;1.80;;;21.10;99.90;;;;;;6050865;23;20510;-74
2022/11/02 12:13:38;;;;;;;5.20;1.70;;;21.20;99.90;;;;;;6038156;23;21136;-74
2022/11/02 12:16:15;;;;;;;4.40;1.77;;;21.40;99.90;;;;;;6051479;23;20455;-74
2022/11/02 12:19:08;;;;;;;4.10;2.00;;;21.40;99.90;;;;;;6053316;23;20490;-74
2022/11/02 12:21:48;;;;;;;3.57;2.23;;;21.10;99.90;;;;;;6028712;23;20439;-74
2022/11/02 12:24:46;;;;;;;4.60;2.30;;;21.10;99.90;;;;;;6031381;23;20508;-74
2022/11/02 12:27:28;;;;;;;6.00;2.00;;;21.20;99.90;;;;;;6045849;23;20801;-73
2022/11/02 12:30:08;;;;;;;5.80;2.20;;;21.10;99.90;;;;;;6070132;23;20520;-74
2022/11/02 12:32:54;;;;;;;9.20;2.43;;;20.80;99.90;;;;;;6036750;23;20445;-73
2022/11/02 12:35:37;;;;;;;5.03;2.23;;;20.20;99.90;;;;;;6044330;23;20450;-73
2022/11/02 12:38:18;;;;;;;5.90;2.20;;;20.10;99.90;;;;;;6048442;23;20438;-73
2022/11/02 12:40:56;;;;;;;5.37;1.73;;;20.10;99.90;;;;;;6051551;23;20437;-73
2022/11/02 12:43:38;;;;;;;6.13;2.00;;;19.90;99.90;;;;;;6046758;23;20445;-73
2022/11/02 12:46:16;;;;;;;3.33;1.60;;;19.80;99.90;;;;;;6036193;23;20474;-73
2022/11/02 12:48:53;;;;;;;2.93;1.80;;;19.70;99.90;;;;;;6085506;23;20426;-73
2022/11/02 12:51:24;;;;;;;4.87;2.03;;;19.80;99.90;;;;;;6052589;23;20532;-73
2022/11/02 12:53:57;;;;;;;4.17;1.77;;;19.90;99.90;;;;;;6063590;23;20502;-73
2022/11/02 12:56:30;;;;;;;4.10;2.00;;;19.80;99.90;;;;;;6035572;23;20470;-73
2022/11/02 12:58:59;;;;;;;3.33;2.10;;;19.70;99.90;;;;;;6027606;23;21193;-73
2022/11/02 13:01:34;;;;;;;4.13;1.90;;;19.50;99.90;;;;;;6052437;23;20439;-73
2022/11/02 13:04:09;;;;;;;4.70;2.00;;;19.50;99.90;;;;;;6059850;23;21240;-74
2022/11/02 13:06:41;;;;;;;4.30;2.43;;;19.60;99.90;;;;;;6057850;23;20443;-73
2022/11/02 13:09:14;;;;;;;5.80;2.10;;;19.50;99.90;;;;;;6052438;23;20484;-73
2022/11/02 13:11:45;;;;;;;4.50;1.90;;;19.60;99.90;;;;;;6057713;23;20489;-73
2022/11/02 13:14:16;;;;;;;3.13;1.47;;;19.70;99.90;;;;;;6049344;23;20474;-73
2022/11/02 13:16:50;;;;;;;4.53;2.10;;;19.70;99.90;;;;;;6062050;23;20458;-74
2022/11/02 13:19:22;;;;;;;3.60;1.80;;;19.80;99.90;;;;;;6053135;23;20504;-74
2022/11/02 13:21:54;;;;;;;4.40;1.87;;;19.90;99.90;;;;;;6061811;23;20481;-74